Weather History for Oxford, MS

Change the Weather History Date:

Monday, November 4, 2013

  Actual Average Record
Temperature  
Mean Temperature 52 °F -  
Max Temperature 64 °F 65 °F 84 °F (1987)
Min Temperature 39 °F 41 °F 21 °F (1966)
Degree Days  
Heating Degree Days 14    
Growing Degree Days 2 (Base 50)    
Moisture  
Dew Point 42 °F    
Average Humidity 67    
Maximum Humidity 93    
Minimum Humidity 42    
Precipitation  
Precipitation 0.00 in - - ()
Sea Level Pressure  
Sea Level Pressure 30.27 in    
Wind  
Wind Speed 2 mph (SSE)    
Max Wind Speed 8 mph    
Max Gust Speed 22 mph    
Visibility 10 miles    
Events      
Averages and records for this station are not official NWS values.
T = Trace of Precipitation, MM = Missing Value Source: NWS Daily Summary

Daily Weather History Graph

Daily Weather History Graph

Search for Another Location

Airport:

Trip Planner

Search our weather history database for the weather conditions in past years. The results will help you decide how hot, cold, wet, or windy it might be!

Date:

Astronomy

Nov. 04, 2013 Rise Set
Actual Time 6:21 AM CST 5:01 PM CST
Civil Twilight 5:55 AM CST 5:27 PM CST
Nautical Twilight 5:25 AM CST 5:57 PM CST
Astronomical Twilight 4:55 AM CST 6:27 PM CST
Moon 7:29 AM CST (11/4) 6:09 PM CST (11/4)
Length of Visible Light 11h 32m
Length of Day
10h 40m
New Moon, 2% of the Moon is Illuminated
Nov 4
New Moon
Nov 9
First Quarter
Nov 17
Full
Nov 25
Last Quarter
Dec 2
New

Hourly Weather History & Observations

Time (CST) Temp. Windchill Dew Point Humidity Pressure Visibility Wind Dir Wind Speed Gust Speed Precip Events Conditions
12:15 AM 39.2 °F - 37.4 °F 93% 30.25 in 10.0 mi Calm Calm - N/A   Clear
12:35 AM 39.2 °F - 37.4 °F 93% 30.24 in 10.0 mi Calm Calm - N/A   Clear
12:55 AM 39.2 °F - 37.4 °F 93% 30.23 in 10.0 mi Calm Calm - N/A   Clear
1:15 AM 41.0 °F - 37.4 °F 87% 30.23 in 10.0 mi Calm Calm - N/A   Clear
1:35 AM 44.6 °F - 37.4 °F 76% 30.23 in 10.0 mi Calm Calm - N/A   Clear
1:55 AM 44.6 °F - 37.4 °F 76% 30.22 in 10.0 mi Calm Calm - N/A   Clear
2:15 AM 44.6 °F 43.1 °F 37.4 °F 76% 30.22 in 10.0 mi SE 3.5 mph - N/A   Clear
2:35 AM 44.6 °F 43.1 °F 37.4 °F 76% 30.22 in 10.0 mi SE 3.5 mph - N/A   Clear
2:55 AM 44.6 °F - 37.4 °F 76% 30.22 in 10.0 mi Calm Calm - N/A   Clear
3:15 AM 44.6 °F - 37.4 °F 76% 30.22 in 10.0 mi Calm Calm - N/A   Clear
3:35 AM 44.6 °F - 37.4 °F 76% 30.23 in 10.0 mi Calm Calm - N/A   Clear
3:55 AM 44.6 °F - 37.4 °F 76% 30.24 in 10.0 mi Calm Calm - N/A   Clear
4:15 AM 44.6 °F 43.1 °F 37.4 °F 76% 30.22 in 10.0 mi SE 3.5 mph - N/A   Clear
4:35 AM 44.6 °F 43.1 °F 37.4 °F 76% 30.23 in 10.0 mi SE 3.5 mph - N/A   Clear
4:55 AM 44.6 °F - 37.4 °F 76% 30.24 in 10.0 mi Calm Calm - N/A   Clear
5:15 AM 42.8 °F - 37.4 °F 81% 30.25 in 10.0 mi Calm Calm - N/A   Clear
5:35 AM 44.6 °F - 37.4 °F 76% 30.26 in 10.0 mi Calm Calm - N/A   Clear
5:55 AM 44.6 °F - 37.4 °F 76% 30.27 in 10.0 mi Calm Calm - N/A   Clear
6:15 AM 44.6 °F - 37.4 °F 76% 30.28 in 10.0 mi Calm Calm - N/A   Clear
6:35 AM 44.6 °F 43.1 °F 37.4 °F 76% 30.28 in 10.0 mi SE 3.5 mph - N/A   Clear
6:55 AM 42.8 °F - 37.4 °F 81% 30.28 in 10.0 mi Calm Calm - N/A   Clear
7:15 AM 44.6 °F 43.1 °F 37.4 °F 76% 30.29 in 10.0 mi SE 3.5 mph - N/A   Clear
7:35 AM 46.4 °F 45.2 °F 37.4 °F 71% 30.30 in 10.0 mi SE 3.5 mph - N/A   Clear
7:55 AM 48.2 °F - 39.2 °F 71% 30.30 in 10.0 mi SSE 4.6 mph - N/A   Clear
8:15 AM 48.2 °F - 39.2 °F 71% 30.32 in 10.0 mi SSE 3.5 mph - N/A   Clear
8:35 AM 50.0 °F - 39.2 °F 66% 30.32 in 10.0 mi SSE 3.5 mph - N/A   Clear
8:55 AM 50.0 °F - 41.0 °F 71% 30.33 in 10.0 mi SE 3.5 mph - N/A   Clear
9:15 AM 53.6 °F - 41.0 °F 62% 30.33 in 10.0 mi SSE 3.5 mph - N/A   Clear
9:35 AM 55.4 °F - 41.0 °F 58% 30.33 in 10.0 mi South 4.6 mph - N/A   Clear
9:55 AM 57.2 °F - 41.0 °F 55% 30.33 in 10.0 mi SSE 4.6 mph - N/A   Clear
10:15 AM 60.8 °F - 41.0 °F 48% 30.32 in 9.0 mi South 5.8 mph - N/A   Clear
10:35 AM 60.8 °F - 41.0 °F 48% 30.31 in 10.0 mi SSW 5.8 mph - N/A   Clear
10:55 AM 60.8 °F - 39.2 °F 45% 30.31 in 10.0 mi South 6.9 mph - N/A   Clear
11:15 AM 60.8 °F - 39.2 °F 45% 30.30 in 10.0 mi SSW 8.1 mph 21.9 mph N/A   Clear
11:35 AM 60.8 °F - 41.0 °F 48% 30.30 in 10.0 mi South 3.5 mph - N/A   Partly Cloudy
11:55 AM 62.6 °F - 41.0 °F 45% 30.28 in 9.0 mi SSE 3.5 mph - N/A   Clear
12:15 PM 62.6 °F - 41.0 °F 45% 30.27 in 10.0 mi SSE 5.8 mph - N/A   Clear
12:35 PM 62.6 °F - 41.0 °F 45% 30.26 in 10.0 mi South 3.5 mph - N/A   Clear
12:55 PM 64.4 °F - 41.0 °F 42% 30.25 in 10.0 mi South 6.9 mph - N/A   Clear
1:15 PM 62.6 °F - 41.0 °F 45% 30.25 in 10.0 mi South 5.8 mph - N/A   Clear
1:35 PM 62.6 °F - 42.8 °F 48% 30.25 in 10.0 mi SE 4.6 mph - N/A   Clear
1:55 PM 62.6 °F - 42.8 °F 48% 30.25 in 10.0 mi South 3.5 mph - N/A   Clear
2:15 PM 62.6 °F - 42.8 °F 48% 30.25 in 10.0 mi SSE 5.8 mph - N/A   Clear
2:35 PM 62.6 °F - 42.8 °F 48% 30.25 in 10.0 mi South 4.6 mph - N/A   Clear
2:55 PM 62.6 °F - 44.6 °F 52% 30.25 in 10.0 mi Calm Calm - N/A   Clear
3:15 PM 62.6 °F - 44.6 °F 52% 30.25 in 10.0 mi South 3.5 mph - N/A   Clear
3:35 PM 62.6 °F - 44.6 °F 52% 30.25 in 10.0 mi Calm Calm - N/A   Clear
3:55 PM 59.0 °F - 44.6 °F 59% 30.25 in 10.0 mi Calm Calm - N/A   Clear
4:15 PM 59.0 °F - 46.4 °F 63% 30.25 in 10.0 mi Calm Calm - N/A   Clear
4:35 PM 59.0 °F - 46.4 °F 63% 30.25 in 10.0 mi Calm Calm - N/A   Clear
4:55 PM 57.2 °F - 46.4 °F 67% 30.25 in 10.0 mi Calm Calm - N/A   Clear
5:15 PM 55.4 °F - 48.2 °F 77% 30.26 in 10.0 mi Calm Calm - N/A   Clear
5:35 PM 55.4 °F - 46.4 °F 72% 30.27 in 10.0 mi Calm Calm - N/A   Clear
5:55 PM 53.6 °F - 48.2 °F 82% 30.26 in 10.0 mi Calm Calm - N/A   Clear
6:15 PM 53.6 °F - 48.2 °F 82% 30.26 in 10.0 mi Calm Calm - N/A   Clear
6:35 PM 53.6 °F - 48.2 °F 82% 30.26 in 10.0 mi Calm Calm - N/A   Clear
6:55 PM 53.6 °F - 46.4 °F 77% 30.26 in 10.0 mi Calm Calm - N/A   Clear
7:15 PM 53.6 °F - 46.4 °F 77% 30.26 in 10.0 mi Calm Calm - N/A   Clear
7:35 PM 53.6 °F - 46.4 °F 77% 30.26 in 10.0 mi Calm Calm - N/A   Clear
7:55 PM 53.6 °F - 46.4 °F 77% 30.26 in 10.0 mi Calm Calm - N/A   Unknown
8:15 PM 53.6 °F - 44.6 °F 72% 30.26 in 10.0 mi SE 4.6 mph - N/A   Clear
8:35 PM 55.4 °F - 44.6 °F 67% 30.27 in 10.0 mi Calm Calm - N/A   Clear
8:55 PM 55.4 °F - 44.6 °F 67% 30.28 in 10.0 mi Calm Calm - N/A   Clear
9:15 PM 55.4 °F - 44.6 °F 67% 30.27 in 10.0 mi Calm Calm - N/A   Clear
9:35 PM 55.4 °F - 42.8 °F 63% 30.29 in 10.0 mi Calm Calm - N/A   Clear
9:55 PM 53.6 °F - 44.6 °F 72% 30.28 in 10.0 mi Calm Calm - N/A   Clear
10:15 PM 53.6 °F - 44.6 °F 72% 30.28 in 10.0 mi Calm Calm - N/A   Clear
10:35 PM 53.6 °F - 42.8 °F 67% 30.29 in 10.0 mi Calm Calm - N/A   Clear
10:55 PM 53.6 °F - 42.8 °F 67% 30.28 in 10.0 mi Calm Calm - N/A   Clear
11:15 PM 53.6 °F - 42.8 °F 67% 30.29 in 10.0 mi Calm Calm - N/A   Clear
11:35 PM 51.8 °F - 42.8 °F 71% 30.29 in 10.0 mi Calm Calm - N/A   Clear
11:55 PM 51.8 °F - 44.6 °F 76% 30.28 in 10.0 mi Calm Calm - N/A   Clear